createdAt,value
2022-11-19T00:01:26.603Z,4.13
2022-11-19T00:03:54.148Z,4.22
2022-11-19T00:06:26.623Z,4.28
2022-11-19T00:08:54.303Z,4.20
2022-11-19T00:11:41.944Z,3.90
2022-11-19T00:14:12.462Z,4.47
2022-11-19T00:16:39.928Z,3.70
2022-11-19T00:19:07.255Z,4.28
2022-11-19T00:21:34.326Z,3.22
2022-11-19T00:24:01.507Z,3.75
2022-11-19T00:26:28.778Z,3.70
2022-11-19T00:28:55.862Z,3.67
2022-11-19T00:31:23.427Z,3.97
2022-11-19T00:33:50.936Z,3.70
2022-11-19T00:36:18.294Z,3.72
2022-11-19T00:38:45.613Z,4.00
2022-11-19T00:41:12.596Z,3.95
2022-11-19T00:43:48.835Z,3.38
2022-11-19T00:46:20.629Z,3.97
2022-11-19T00:48:49.093Z,3.80
2022-11-19T00:51:17.828Z,4.13
2022-11-19T00:53:45.262Z,4.07
2022-11-19T00:56:14.840Z,4.13
2022-11-19T00:58:42.347Z,3.85
2022-11-19T01:01:10.947Z,4.72
2022-11-19T01:03:40.180Z,4.30
2022-11-19T01:06:08.839Z,3.90
2022-11-19T01:08:36.416Z,4.13
2022-11-19T01:11:08.982Z,3.38
2022-11-19T01:13:36.506Z,4.18
2022-11-19T01:16:21.786Z,3.45
2022-11-19T01:18:49.970Z,4.20
2022-11-19T01:21:18.423Z,3.53
2022-11-19T01:23:46.156Z,3.63
2022-11-19T01:26:13.527Z,3.67
2022-11-19T01:28:40.954Z,3.85
2022-11-19T01:31:14.873Z,3.70
2022-11-19T01:33:41.902Z,3.90
2022-11-19T01:36:13.097Z,4.20
2022-11-19T01:38:40.522Z,4.13
2022-11-19T01:41:09.489Z,4.15
2022-11-19T01:43:54.276Z,4.20
2022-11-19T01:46:24.185Z,4.43
2022-11-19T01:48:55.259Z,3.90
2022-11-19T01:51:32.819Z,4.00
2022-11-19T01:54:05.175Z,4.57
2022-11-19T01:56:32.334Z,4.15
2022-11-19T01:59:04.158Z,4.20
2022-11-19T02:01:33.778Z,4.20
2022-11-19T02:04:02.119Z,3.85
2022-11-19T02:06:30.593Z,4.10
2022-11-19T02:08:57.581Z,4.50
2022-11-19T02:12:09.791Z,4.40
2022-11-19T02:14:39.451Z,4.07
2022-11-19T02:17:28.408Z,4.28
2022-11-19T02:20:13.815Z,4.13
2022-11-19T02:23:02.631Z,3.95
2022-11-19T02:25:38.431Z,4.25
2022-11-19T02:28:29.126Z,4.03
2022-11-19T02:31:05.961Z,3.63
2022-11-19T02:33:52.602Z,3.78
2022-11-19T02:38:52.606Z,4.93
2022-11-19T02:41:42.413Z,3.60
2022-11-19T02:44:49.600Z,4.00
2022-11-19T02:47:21.113Z,4.03
2022-11-19T02:49:51.267Z,4.10
2022-11-19T02:52:19.290Z,4.35
2022-11-19T02:54:46.109Z,4.10
2022-11-19T02:57:14.060Z,4.25
2022-11-19T03:00:21.189Z,4.03
2022-11-19T03:03:22.978Z,4.32
2022-11-19T03:05:55.312Z,3.90
2022-11-19T03:08:22.191Z,4.20
2022-11-19T03:11:18.023Z,4.30
2022-11-19T03:14:16.983Z,3.75
2022-11-19T03:16:56.612Z,3.90
2022-11-19T03:19:34.515Z,4.05
2022-11-19T03:22:24.426Z,4.20
2022-11-19T03:25:00.530Z,4.57
2022-11-19T03:30:01.366Z,5.38
2022-11-19T03:32:43.668Z,4.78
2022-11-19T03:35:19.703Z,4.28
2022-11-19T03:37:51.547Z,4.43
2022-11-19T03:40:20.135Z,3.97
2022-11-19T03:42:51.217Z,4.33
2022-11-19T03:45:28.388Z,4.05
2022-11-19T03:47:57.172Z,4.43
2022-11-19T03:50:40.968Z,4.70
2022-11-19T03:53:08.104Z,6.40
2022-11-19T03:55:43.000Z,5.40
2022-11-19T03:58:11.998Z,8.57
2022-11-19T04:00:38.894Z,6.43
2022-11-19T04:03:05.814Z,4.75
2022-11-19T04:05:32.791Z,4.53
2022-11-19T04:07:59.760Z,5.45
2022-11-19T04:10:26.818Z,4.45
2022-11-19T04:12:53.736Z,5.00
2022-11-19T04:15:20.592Z,4.38
2022-11-19T04:17:47.517Z,4.68
2022-11-19T04:20:14.809Z,4.50
2022-11-19T04:22:42.272Z,4.60
2022-11-19T04:25:09.732Z,4.82
2022-11-19T04:27:36.669Z,4.00
2022-11-19T04:30:04.778Z,4.78
2022-11-19T04:32:32.084Z,4.90
2022-11-19T04:34:59.157Z,5.53
2022-11-19T04:37:26.384Z,4.60
2022-11-19T04:39:53.663Z,3.92
2022-11-19T04:42:20.892Z,4.57
2022-11-19T04:44:47.836Z,3.80
2022-11-19T04:47:14.931Z,3.92
2022-11-19T04:49:42.631Z,3.60
2022-11-19T04:52:09.682Z,4.05
2022-11-19T04:54:36.754Z,4.90
2022-11-19T04:57:03.984Z,4.40
2022-11-19T04:59:30.920Z,5.20
2022-11-19T05:01:58.072Z,5.20
2022-11-19T05:04:25.365Z,4.05
2022-11-19T05:06:52.518Z,4.15
2022-11-19T05:09:19.686Z,3.83
2022-11-19T05:11:47.009Z,3.78
2022-11-19T05:14:14.392Z,4.60
2022-11-19T05:16:41.405Z,4.15
2022-11-19T05:19:08.582Z,4.50
2022-11-19T05:21:35.525Z,4.47
2022-11-19T05:24:02.584Z,4.13
2022-11-19T05:26:29.650Z,5.00
2022-11-19T05:28:56.767Z,4.20
2022-11-19T05:31:23.919Z,4.28
2022-11-19T05:33:50.874Z,4.00
2022-11-19T05:36:18.135Z,4.15
2022-11-19T05:38:45.287Z,4.50
2022-11-19T05:41:12.375Z,4.70
2022-11-19T05:43:39.439Z,5.00
2022-11-19T05:46:06.468Z,4.32
2022-11-19T05:48:33.649Z,4.80
2022-11-19T05:51:00.799Z,4.07
2022-11-19T05:53:27.985Z,4.10
2022-11-19T05:55:55.319Z,4.15
2022-11-19T05:58:22.347Z,4.93
2022-11-19T06:00:53.859Z,4.82
2022-11-19T06:03:21.109Z,4.30
2022-11-19T06:05:48.651Z,3.95
2022-11-19T06:08:15.910Z,4.65
2022-11-19T06:10:42.952Z,4.35
2022-11-19T06:13:10.133Z,4.80
2022-11-19T06:15:37.224Z,4.35
2022-11-19T06:18:04.813Z,4.45
2022-11-19T06:20:31.951Z,4.47
2022-11-19T06:22:59.125Z,4.38
2022-11-19T06:25:26.234Z,4.55
2022-11-19T06:27:53.479Z,4.18
2022-11-19T06:30:20.576Z,4.93
2022-11-19T06:32:48.473Z,4.95
2022-11-19T06:35:15.550Z,4.53
2022-11-19T06:37:42.512Z,4.18
2022-11-19T06:40:10.299Z,4.18
2022-11-19T06:42:37.563Z,4.63
2022-11-19T06:45:13.834Z,4.07
2022-11-19T06:47:41.814Z,4.82
2022-11-19T06:50:11.229Z,3.70
2022-11-19T06:52:38.771Z,4.35
2022-11-19T06:55:06.634Z,3.95
2022-11-19T06:57:33.838Z,4.80
2022-11-19T07:00:01.253Z,12.18
2022-11-19T07:02:28.671Z,11.45
2022-11-19T07:04:55.867Z,8.43
2022-11-19T07:07:23.088Z,6.80
2022-11-19T07:09:50.372Z,5.05
2022-11-19T07:12:17.659Z,5.40
2022-11-19T07:14:44.718Z,4.93
2022-11-19T07:17:13.812Z,4.50
2022-11-19T07:19:41.140Z,3.83
2022-11-19T07:22:08.287Z,3.60
2022-11-19T07:24:36.153Z,4.57
2022-11-19T07:27:03.540Z,4.35
2022-11-19T07:29:31.996Z,3.78
2022-11-19T07:31:59.065Z,4.10
2022-11-19T07:34:26.932Z,3.88
2022-11-19T07:36:54.497Z,3.88
2022-11-19T07:39:23.548Z,3.92
2022-11-19T07:42:09.690Z,3.90
2022-11-19T07:44:37.289Z,4.13
2022-11-19T07:47:07.735Z,3.70
2022-11-19T07:49:35.256Z,3.33
2022-11-19T07:52:03.127Z,4.00
2022-11-19T07:54:32.224Z,4.07
2022-11-19T07:56:59.251Z,3.88
2022-11-19T07:59:29.473Z,3.80
2022-11-19T08:01:56.543Z,3.45
2022-11-19T08:04:23.627Z,3.63
2022-11-19T08:06:51.229Z,3.90
2022-11-19T08:09:18.823Z,3.70
2022-11-19T08:11:46.092Z,3.78
2022-11-19T08:14:14.220Z,4.25
2022-11-19T08:17:00.144Z,4.20
2022-11-19T08:19:27.236Z,4.15
2022-11-19T08:21:54.358Z,4.18
2022-11-19T08:24:22.592Z,3.25
2022-11-19T08:26:51.282Z,4.10
2022-11-19T08:29:21.331Z,3.78
2022-11-19T08:31:48.929Z,4.25
2022-11-19T08:34:17.048Z,4.00
2022-11-19T08:36:46.155Z,4.50
2022-11-19T08:39:14.237Z,4.32
2022-11-19T08:42:00.427Z,4.38
2022-11-19T08:44:27.608Z,4.10
2022-11-19T08:46:55.243Z,4.47
2022-11-19T08:49:23.207Z,4.43
2022-11-19T08:51:50.643Z,3.75
2022-11-19T08:54:19.095Z,4.18
2022-11-19T08:56:47.386Z,3.95
2022-11-19T08:59:15.160Z,4.00
2022-11-19T09:01:42.253Z,4.38
2022-11-19T09:04:09.548Z,4.38
2022-11-19T09:06:36.694Z,4.82
2022-11-19T09:09:04.804Z,5.53
2022-11-19T09:11:32.319Z,4.30
2022-11-19T09:13:59.824Z,4.70
2022-11-19T09:16:27.567Z,4.70
2022-11-19T09:18:55.189Z,5.00
2022-11-19T09:21:22.503Z,4.65
2022-11-19T09:23:49.920Z,4.97
2022-11-19T09:26:19.442Z,4.60
2022-11-19T09:28:47.428Z,5.07
2022-11-19T09:31:17.164Z,4.20
2022-11-19T09:33:47.528Z,3.90
2022-11-19T09:36:16.724Z,4.00
2022-11-19T09:38:44.344Z,4.50
2022-11-19T09:41:39.250Z,4.18
2022-11-19T09:44:30.759Z,3.63
2022-11-19T09:47:26.278Z,4.15
2022-11-19T09:50:05.918Z,5.03
2022-11-19T09:52:36.614Z,4.43
2022-11-19T09:55:04.331Z,4.05
2022-11-19T09:57:40.283Z,4.13
2022-11-19T10:00:09.461Z,5.00
2022-11-19T10:02:36.907Z,5.55
2022-11-19T10:05:07.265Z,4.70
2022-11-19T10:07:51.238Z,4.30
2022-11-19T10:10:35.925Z,3.78
2022-11-19T10:13:34.452Z,4.28
2022-11-19T10:16:11.801Z,4.72
2022-11-19T10:19:11.025Z,4.88
2022-11-19T10:22:03.740Z,4.45
2022-11-19T10:24:45.352Z,4.03
2022-11-19T10:27:38.600Z,3.25
2022-11-19T10:30:15.436Z,4.00
2022-11-19T10:32:58.206Z,3.28
2022-11-19T10:35:35.699Z,3.65
2022-11-19T10:38:05.739Z,3.70
2022-11-19T10:40:44.242Z,4.35
2022-11-19T10:43:33.453Z,3.80
2022-11-19T10:46:04.474Z,3.92
2022-11-19T10:48:44.654Z,3.45
2022-11-19T10:51:36.302Z,3.65
2022-11-19T10:54:07.404Z,3.95
2022-11-19T10:56:40.639Z,4.00
2022-11-19T10:59:18.982Z,3.25
2022-11-19T11:01:49.535Z,3.63
2022-11-19T11:04:29.121Z,4.15
2022-11-19T11:06:59.989Z,3.30
2022-11-19T11:09:39.440Z,3.35
2022-11-19T11:12:46.792Z,2.97
2022-11-19T11:15:24.967Z,3.42
2022-11-19T11:18:07.635Z,3.47
2022-11-19T11:20:36.580Z,3.75
2022-11-19T11:23:05.945Z,3.85
2022-11-19T11:25:34.124Z,4.03
2022-11-19T11:28:16.557Z,3.55
2022-11-19T11:31:04.604Z,3.65
2022-11-19T11:33:38.680Z,3.33
2022-11-19T11:36:19.857Z,3.33
2022-11-19T11:38:53.579Z,3.50
2022-11-19T11:44:21.491Z,3.72
2022-11-19T11:46:58.237Z,3.45
2022-11-19T11:49:36.514Z,3.30
2022-11-19T11:52:15.940Z,4.13
2022-11-19T11:55:00.352Z,4.28
2022-11-19T11:57:38.695Z,4.88
2022-11-19T12:00:32.659Z,4.25
2022-11-19T12:03:14.659Z,4.05
2022-11-19T12:06:16.119Z,3.85
2022-11-19T12:08:46.392Z,3.70
2022-11-19T12:11:25.570Z,3.22
2022-11-19T12:14:13.091Z,3.10
2022-11-19T12:17:00.982Z,2.95
2022-11-19T12:19:56.240Z,4.10
2022-11-19T12:22:38.391Z,3.97
2022-11-19T12:25:32.557Z,3.75
2022-11-19T12:28:20.852Z,3.45
2022-11-19T12:30:48.051Z,3.83
2022-11-19T12:33:33.989Z,4.07
2022-11-19T12:36:31.399Z,3.88
2022-11-19T12:39:23.150Z,3.40
2022-11-19T12:41:59.767Z,4.32
2022-11-19T12:44:27.310Z,3.15
2022-11-19T12:47:01.117Z,3.45
2022-11-19T12:49:59.348Z,4.03
2022-11-19T12:52:46.547Z,3.80
2022-11-19T12:55:37.858Z,3.53
2022-11-19T12:58:27.742Z,3.58
2022-11-19T13:01:02.378Z,3.80
2022-11-19T13:04:01.251Z,3.45
2022-11-19T13:06:32.582Z,4.90
2022-11-19T13:09:07.863Z,6.10
2022-11-19T13:11:46.985Z,6.47
2022-11-19T13:14:36.948Z,5.45
2022-11-19T13:17:08.036Z,4.65
2022-11-19T13:19:38.663Z,4.78
2022-11-19T13:22:34.199Z,5.57
2022-11-19T13:25:07.403Z,5.00
2022-11-19T13:27:35.910Z,4.28
2022-11-19T13:30:06.841Z,5.00
2022-11-19T13:32:43.900Z,5.25
2022-11-19T13:35:24.086Z,4.30
2022-11-19T13:37:58.719Z,4.38
2022-11-19T13:40:35.936Z,4.30
2022-11-19T13:43:32.456Z,4.35
2022-11-19T13:49:04.679Z,4.68
2022-11-19T13:51:39.586Z,4.05
2022-11-19T13:54:08.910Z,5.20
2022-11-19T13:56:43.840Z,5.10
2022-11-19T13:59:25.652Z,4.75
2022-11-19T14:02:12.998Z,5.63
2022-11-19T14:05:03.686Z,5.43
2022-11-19T14:07:56.112Z,5.85
2022-11-19T14:10:45.660Z,5.68
2022-11-19T14:13:41.817Z,5.97
2022-11-19T14:16:51.040Z,6.07
2022-11-19T14:19:38.652Z,5.50
2022-11-19T14:22:51.373Z,6.88
2022-11-19T14:26:11.152Z,6.93
2022-11-19T14:28:47.225Z,5.75
2022-11-19T14:31:16.489Z,7.07
2022-11-19T14:33:49.877Z,6.57
2022-11-19T14:36:30.269Z,6.50
2022-11-19T14:39:03.006Z,7.25
2022-11-19T14:41:42.689Z,6.85
2022-11-19T14:44:10.194Z,6.50
2022-11-19T14:46:49.704Z,6.85
2022-11-19T14:49:42.400Z,6.07
2022-11-19T14:52:21.991Z,6.03
2022-11-19T14:54:58.695Z,7.78
2022-11-19T14:57:42.661Z,7.10
2022-11-19T15:00:16.311Z,7.63
2022-11-19T15:02:48.317Z,7.00
2022-11-19T15:05:29.863Z,7.72
2022-11-19T15:08:48.410Z,7.70
2022-11-19T15:11:17.287Z,7.15
2022-11-19T15:13:46.511Z,7.78
2022-11-19T15:16:24.439Z,7.63
2022-11-19T15:19:17.027Z,7.80
2022-11-19T15:21:44.231Z,7.50
2022-11-19T15:24:36.433Z,7.50
2022-11-19T15:27:14.951Z,7.15
2022-11-19T15:30:02.202Z,7.53
2022-11-19T15:32:47.159Z,6.80
2022-11-19T15:35:38.250Z,6.47
2022-11-19T15:38:08.529Z,7.55
2022-11-19T15:40:36.354Z,10.48
2022-11-19T15:43:18.667Z,11.27
2022-11-19T15:46:38.084Z,12.57
2022-11-19T15:49:14.848Z,11.93
2022-11-19T15:52:03.611Z,11.10
2022-11-19T15:54:32.946Z,11.15
2022-11-19T15:57:25.092Z,10.57
2022-11-19T16:00:02.173Z,11.45
2022-11-19T16:02:44.237Z,12.85
2022-11-19T16:05:22.387Z,14.43
2022-11-19T16:07:51.526Z,15.43
2022-11-19T16:10:35.122Z,15.77
2022-11-19T16:13:23.113Z,16.88
2022-11-19T16:16:13.387Z,17.50
2022-11-19T16:18:52.061Z,16.05
2022-11-19T16:21:31.976Z,15.25
2022-11-19T16:24:20.670Z,14.87
2022-11-19T16:26:55.569Z,15.02
2022-11-19T16:29:25.023Z,14.37
2022-11-19T16:31:58.494Z,14.40
2022-11-19T16:34:30.270Z,14.38
2022-11-19T16:36:57.886Z,12.70
2022-11-19T16:39:28.237Z,12.45
2022-11-19T16:42:17.786Z,11.13
2022-11-19T16:44:56.320Z,10.60
2022-11-19T16:47:58.977Z,11.55
2022-11-19T16:50:35.549Z,9.90
2022-11-19T16:53:17.925Z,9.43
2022-11-19T16:55:52.275Z,10.52
2022-11-19T16:58:26.303Z,11.45
2022-11-19T17:00:56.785Z,11.32
2022-11-19T17:03:29.748Z,9.85
2022-11-19T17:05:57.868Z,10.15
2022-11-19T17:08:37.825Z,11.20
2022-11-19T17:12:08.049Z,12.50
2022-11-19T17:14:39.433Z,12.07
2022-11-19T17:17:40.685Z,12.48
2022-11-19T17:20:31.893Z,12.25
2022-11-19T17:23:01.040Z,12.60
2022-11-19T17:25:28.715Z,11.93
2022-11-19T17:27:59.803Z,11.02
2022-11-19T17:30:33.159Z,11.73
2022-11-19T17:33:02.134Z,10.25
2022-11-19T17:35:33.917Z,10.60
2022-11-19T17:38:10.449Z,11.48
2022-11-19T17:40:46.206Z,12.48
2022-11-19T17:43:34.717Z,13.10
2022-11-19T17:46:02.698Z,12.98
2022-11-19T17:48:30.647Z,14.18
2022-11-19T17:51:03.905Z,12.18
2022-11-19T17:53:33.356Z,13.43
2022-11-19T17:56:03.198Z,13.15
2022-11-19T17:58:31.873Z,11.73
2022-11-19T18:01:03.681Z,10.48
2022-11-19T18:03:33.489Z,9.32
2022-11-19T18:06:02.651Z,8.32
2022-11-19T18:08:33.008Z,8.02
2022-11-19T18:11:00.506Z,7.70
2022-11-19T18:13:30.110Z,7.90
2022-11-19T18:16:00.559Z,7.50
2022-11-19T18:18:28.239Z,7.65
2022-11-19T18:21:01.993Z,8.18
2022-11-19T18:23:31.662Z,8.52
2022-11-19T18:26:00.522Z,7.53
2022-11-19T18:28:29.902Z,7.60
2022-11-19T18:31:01.111Z,8.43
2022-11-19T18:33:32.294Z,8.40
2022-11-19T18:36:00.977Z,8.13
2022-11-19T18:38:35.522Z,9.45
2022-11-19T18:41:02.862Z,9.38
2022-11-19T18:43:53.413Z,8.95
2022-11-19T18:46:23.342Z,10.00
2022-11-19T18:48:51.495Z,10.38
2022-11-19T18:51:21.946Z,10.70
2022-11-19T18:53:50.606Z,10.40
2022-11-19T18:56:20.105Z,10.68
2022-11-19T18:58:47.395Z,11.20
2022-11-19T19:01:16.560Z,11.73
2022-11-19T19:03:52.897Z,12.52
2022-11-19T19:06:25.730Z,12.13
2022-11-19T19:08:52.925Z,12.40
2022-11-19T19:11:39.742Z,13.27
2022-11-19T19:14:07.497Z,13.50
2022-11-19T19:16:35.019Z,13.30
2022-11-19T19:19:03.671Z,12.55
2022-11-19T19:21:31.373Z,13.40
2022-11-19T19:23:59.008Z,13.40
2022-11-19T19:26:27.907Z,13.15
2022-11-19T19:28:58.599Z,13.80
2022-11-19T19:31:29.422Z,12.15
2022-11-19T19:33:58.164Z,12.05
2022-11-19T19:36:27.861Z,13.43
2022-11-19T19:38:58.191Z,14.05
2022-11-19T19:41:44.282Z,12.75
2022-11-19T19:44:14.840Z,14.25
2022-11-19T19:46:44.598Z,13.57
2022-11-19T19:49:17.644Z,13.65
2022-11-19T19:51:44.873Z,13.95
2022-11-19T19:54:14.856Z,15.00
2022-11-19T19:56:42.178Z,14.18
2022-11-19T19:59:13.596Z,12.82
2022-11-19T20:01:44.042Z,13.27
2022-11-19T20:04:11.842Z,15.40
2022-11-19T20:06:44.644Z,15.15
2022-11-19T20:09:11.812Z,13.40
2022-11-19T20:11:40.039Z,13.73
2022-11-19T20:14:08.008Z,14.27
2022-11-19T20:16:35.323Z,14.77
2022-11-19T20:19:04.093Z,14.25
2022-11-19T20:21:34.160Z,13.93
2022-11-19T20:24:02.522Z,12.52
2022-11-19T20:26:32.661Z,13.00
2022-11-19T20:29:01.762Z,12.52
2022-11-19T20:31:30.536Z,13.77
2022-11-19T20:33:59.760Z,12.68
2022-11-19T20:36:29.071Z,13.60
2022-11-19T20:38:59.318Z,13.15
2022-11-19T20:41:47.091Z,13.40
2022-11-19T20:44:23.405Z,14.13
2022-11-19T20:47:03.504Z,13.40
2022-11-19T20:49:36.612Z,12.30
2022-11-19T20:52:04.245Z,13.10
2022-11-19T20:54:32.393Z,14.35
2022-11-19T20:57:00.399Z,15.55
2022-11-19T20:59:31.036Z,16.48
2022-11-19T21:01:58.800Z,16.20
2022-11-19T21:04:28.716Z,18.00
2022-11-19T21:06:57.695Z,16.35
2022-11-19T21:09:25.700Z,16.27
2022-11-19T21:11:53.626Z,15.77
2022-11-19T21:14:21.227Z,16.98
2022-11-19T21:16:48.723Z,17.90
2022-11-19T21:19:16.501Z,15.63
2022-11-19T21:21:45.449Z,15.80
2022-11-19T21:24:12.725Z,13.55
2022-11-19T21:26:40.183Z,13.32
2022-11-19T21:29:08.084Z,12.98
2022-11-19T21:31:41.770Z,13.35
2022-11-19T21:34:18.095Z,12.60
2022-11-19T21:36:47.011Z,11.55
2022-11-19T21:39:18.109Z,10.85
2022-11-19T21:41:45.793Z,10.77
2022-11-19T21:44:18.079Z,11.02
2022-11-19T21:46:48.001Z,10.50
2022-11-19T21:49:15.207Z,11.13
2022-11-19T21:51:44.153Z,12.32
2022-11-19T21:54:11.605Z,11.50
2022-11-19T21:56:39.177Z,10.80
2022-11-19T21:59:07.728Z,10.80
2022-11-19T22:01:35.052Z,10.88
2022-11-19T22:04:02.346Z,11.20
2022-11-19T22:06:32.102Z,11.40
2022-11-19T22:08:59.505Z,11.18
2022-11-19T22:11:29.945Z,11.23
2022-11-19T22:14:00.516Z,11.98
2022-11-19T22:16:28.542Z,11.80
2022-11-19T22:18:56.435Z,11.02
2022-11-19T22:21:23.721Z,12.23
2022-11-19T22:23:53.165Z,10.88
2022-11-19T22:26:20.941Z,11.43
2022-11-19T22:28:48.459Z,11.50
2022-11-19T22:31:15.813Z,12.20
2022-11-19T22:33:43.027Z,12.05
2022-11-19T22:36:11.396Z,13.05
2022-11-19T22:38:39.366Z,12.48
2022-11-19T22:41:18.692Z,14.05
2022-11-19T22:43:46.170Z,36.05
2022-11-19T22:46:14.304Z,20.25
2022-11-19T22:48:41.745Z,20.92
2022-11-19T22:51:13.577Z,15.98
2022-11-19T22:53:41.176Z,15.13
2022-11-19T22:56:10.206Z,13.65
2022-11-19T22:58:37.994Z,12.88
2022-11-19T23:01:07.632Z,11.85
2022-11-19T23:03:34.786Z,12.32
2022-11-19T23:06:01.835Z,11.32
2022-11-19T23:08:28.802Z,14.20
2022-11-19T23:11:01.121Z,10.85
2022-11-19T23:13:32.771Z,12.10
2022-11-19T23:16:20.285Z,10.90
2022-11-19T23:18:49.903Z,11.95
2022-11-19T23:21:19.891Z,10.10
2022-11-19T23:23:47.413Z,10.70
2022-11-19T23:26:16.292Z,12.18
2022-11-19T23:28:43.374Z,12.15
2022-11-19T23:31:24.844Z,13.70
2022-11-19T23:33:58.525Z,15.35
2022-11-19T23:36:37.491Z,16.48
2022-11-19T23:39:05.871Z,17.67
2022-11-19T23:41:34.087Z,18.77
2022-11-19T23:44:01.405Z,14.48
2022-11-19T23:46:33.719Z,10.88
2022-11-19T23:49:01.339Z,14.07
2022-11-19T23:51:30.980Z,11.70
2022-11-19T23:53:58.226Z,12.02
2022-11-19T23:56:26.476Z,13.20
2022-11-19T23:58:53.844Z,10.20
